Time;durP1;ratioP1;P1;durP2;ratioP2;P2;SDS_P1;SDS_P2;PMS_P1;PMS_P2;Temp;Humidity;BMP_temperature;BMP_pressure;BME280_temperature;BME280_humidity;BME280_pressure;Samples;Min_cycle;Max_cycle;Signal;HPM_P1;HPM_P2
2021/12/14 00:01:31;;;;;;;78.95;56.40;;;;;;;;;;5113772;28;20020;-69
2021/12/14 00:03:59;;;;;;;103.32;66.35;;;;;;;;;;5113129;28;20065;-66
2021/12/14 00:06:25;;;;;;;102.68;65.40;;;;;;;;;;5113321;28;20038;-68
2021/12/14 00:08:57;;;;;;;102.47;67.97;;;;;;;;;;5113071;28;20030;-67
2021/12/14 00:11:51;;;;;;;104.10;66.63;;;;;;;;;;5113180;28;20043;-67
2021/12/14 00:16:52;;;;;;;128.52;92.70;;;;;;;;;;5113526;28;20028;-66
2021/12/14 00:19:18;;;;;;;118.80;86.97;;;;;;;;;;5113084;28;20019;-70
2021/12/14 00:21:50;;;;;;;121.47;78.72;;;;;;;;;;5113099;28;20024;-72
2021/12/14 00:24:16;;;;;;;113.45;74.63;;;;;;;;;;5113104;28;20039;-72
2021/12/14 00:26:44;;;;;;;119.10;76.15;;;;;;;;;;5112686;28;20015;-67
2021/12/14 00:29:15;;;;;;;112.65;77.75;;;;;;;;;;5112806;28;20028;-66
2021/12/14 00:31:41;;;;;;;115.47;78.47;;;179.50;2252.80;;;;;;5112968;28;20111;-69
2021/12/14 00:34:08;;;;;;;125.07;85.57;;;179.40;2252.80;;;;;;5113107;28;20095;-68
2021/12/14 00:36:40;;;;;;;133.63;90.88;;;179.50;2252.80;;;;;;5112709;28;20024;-77
2021/12/14 00:39:09;;;;;;;124.85;79.93;;;179.40;2252.80;;;;;;5113051;28;20028;-68
2021/12/14 00:41:41;;;;;;;127.38;82.85;;;179.20;2252.80;;;;;;5113469;28;20031;-74
2021/12/14 00:44:08;;;;;;;149.75;93.05;;;154.40;2252.80;;;;;;5112788;28;20020;-72
2021/12/14 00:46:36;;;;;;;135.65;90.63;;;;;;;;;;5113269;28;20450;-71
2021/12/14 00:49:03;;;;;;;113.07;73.22;;;;;;;;;;5116720;28;20039;-66
2021/12/14 00:51:29;;;;;;;148.68;104.43;;;;;;;;;;5116629;28;20035;-67
2021/12/14 00:53:58;;;;;;;158.38;118.20;;;;;;;;;;5116433;28;20024;-71
2021/12/14 00:56:27;;;;;;;102.80;80.72;;;;;;;;;;5116522;28;20278;-69
2021/12/14 00:58:53;;;;;;;103.43;72.93;;;;;;;;;;5116479;28;20415;-69
2021/12/14 01:01:27;;;;;;;90.13;60.90;;;;;;;;;;5116436;28;20498;-74
2021/12/14 01:03:54;;;;;;;97.68;65.38;;;;;;;;;;5116282;28;20039;-67
2021/12/14 01:06:24;;;;;;;90.00;60.20;;;;;;;;;;5116295;28;20393;-66
2021/12/14 01:08:51;;;;;;;103.80;70.38;;;;;;;;;;5116149;28;20028;-66
2021/12/14 01:11:33;;;;;;;107.20;77.15;;;;;;;;;;5115969;28;20036;-66
2021/12/14 01:14:04;;;;;;;92.82;62.03;;;;;;;;;;5116224;28;20024;-65
2021/12/14 01:16:37;;;;;;;90.93;59.95;;;;;;;;;;5116272;28;20484;-66
2021/12/14 01:19:27;;;;;;;75.22;50.13;;;;;;;;;;5116212;28;20146;-66
2021/12/14 01:22:13;;;;;;;83.30;51.97;;;;;;;;;;5115980;28;20019;-69
2021/12/14 01:27:17;;;;;;;60.03;39.75;;;;;;;;;;5116113;28;20031;-67
2021/12/14 01:29:46;;;;;;;59.42;39.05;;;;;;;;;;5115717;28;20074;-68
2021/12/14 01:32:12;;;;;;;52.22;34.17;;;;;;;;;;5115692;28;20482;-67
2021/12/14 01:34:39;;;;;;;52.50;35.08;;;;;;;;;;5115719;28;20027;-69
2021/12/14 01:37:10;;;;;;;47.67;33.30;;;;;;;;;;5115725;28;20027;-66
2021/12/14 01:39:50;;;;;;;51.58;35.38;;;154.30;2252.80;;;;;;5115697;28;20033;-65
2021/12/14 01:42:22;;;;;;;56.28;36.67;;;;;;;;;;5115669;28;20090;-66
2021/12/14 01:44:57;;;;;;;57.45;38.92;;;179.20;2252.80;;;;;;5115382;28;20442;-72
2021/12/14 01:47:30;;;;;;;60.58;42.22;;;;;;;;;;5115593;28;20054;-66
2021/12/14 01:49:56;;;;;;;68.47;41.90;;;;;;;;;;5115342;28;20035;-71
2021/12/14 01:52:26;;;;;;;78.63;51.22;;;;;;;;;;5115381;28;20070;-66
2021/12/14 01:54:54;;;;;;;80.25;51.35;;;;;;;;;;5115383;28;20024;-75
2021/12/14 01:57:24;;;;;;;72.35;46.50;;;179.30;2252.80;;;;;;5115280;28;20030;-72
2021/12/14 01:59:55;;;;;;;65.53;44.20;;;179.30;2252.80;;;;;;5114868;28;20015;-68
2021/12/14 02:02:32;;;;;;;61.65;42.80;;;179.30;2252.80;;;;;;5115456;28;20019;-65
2021/12/14 02:05:05;;;;;;;66.18;43.20;;;154.50;2252.80;;;;;;5115248;28;20027;-69
2021/12/14 02:07:32;;;;;;;64.72;39.88;;;179.30;2252.80;;;;;;5115250;28;20020;-72
2021/12/14 02:10:08;;;;;;;51.05;34.90;;;179.40;2252.80;;;;;;5115250;28;20042;-65
2021/12/14 02:12:33;;;;;;;56.20;34.50;;;179.40;2252.80;;;;;;5115104;28;20040;-66
2021/12/14 02:15:08;;;;;;;51.88;33.70;;;179.30;2252.80;;;;;;5115253;28;20035;-66
2021/12/14 02:17:37;;;;;;;60.28;37.60;;;179.40;2252.80;;;;;;5096794;28;20031;-65
2021/12/14 02:20:04;;;;;;;56.35;35.13;;;179.40;2252.80;;;;;;5115325;28;20458;-66
2021/12/14 02:22:30;;;;;;;53.47;34.25;;;179.50;2252.80;;;;;;5114827;28;20035;-69
2021/12/14 02:24:56;;;;;;;60.55;39.90;;;179.50;2252.80;;;;;;5114695;28;20026;-77
2021/12/14 02:27:22;;;;;;;59.63;36.85;;;179.60;2252.80;;;;;;5114624;28;20024;-68
2021/12/14 02:29:49;;;;;;;58.95;37.50;;;179.50;2252.80;;;;;;5114596;28;20075;-66
2021/12/14 02:32:19;;;;;;;98.55;57.67;;;179.50;2252.80;;;;;;5114883;28;20043;-71
2021/12/14 02:34:52;;;;;;;102.43;58.67;;;179.30;2252.80;;;;;;5114544;28;20019;-63
2021/12/14 02:37:22;;;;;;;77.50;47.35;;;154.50;2252.80;;;;;;5114354;28;20107;-62
2021/12/14 02:40:01;;;;;;;93.93;57.47;;;154.40;2252.80;;;;;;5114446;28;20030;-70
2021/12/14 02:42:30;;;;;;;96.35;57.97;;;179.20;2252.80;;;;;;5114304;28;20114;-66
2021/12/14 02:44:57;;;;;;;75.85;48.15;;;179.40;2252.80;;;;;;5114487;28;20020;-66
2021/12/14 02:47:24;;;;;;;76.88;48.42;;;179.30;2252.80;;;;;;5114480;28;20019;-72
2021/12/14 02:49:50;;;;;;;79.68;49.53;;;179.30;2252.80;;;;;;5114104;28;20359;-73
2021/12/14 02:52:27;;;;;;;85.15;51.78;;;179.40;2252.80;;;;;;5114172;28;20036;-69
2021/12/14 02:54:57;;;;;;;69.85;45.67;;;179.40;2252.80;;;;;;5114578;28;20398;-65
2021/12/14 02:57:27;;;;;;;71.68;46.58;;;179.50;2252.80;;;;;;5114264;28;20474;-76
2021/12/14 02:59:55;;;;;;;71.40;46.33;;;179.50;2252.80;;;;;;5114228;28;20024;-71
2021/12/14 03:02:29;;;;;;;66.43;45.92;;;179.50;2252.80;;;;;;5114151;28;20385;-69
2021/12/14 03:05:03;;;;;;;72.47;48.78;;;179.50;2252.80;;;;;;5113409;28;20066;-74
2021/12/14 03:07:33;;;;;;;76.57;51.03;;;179.60;2252.80;;;;;;5114160;28;20019;-66
2021/12/14 03:10:19;;;;;;;74.07;48.83;;;179.60;2252.80;;;;;;5113782;28;20038;-74
2021/12/14 03:12:51;;;;;;;82.05;51.33;;;179.60;2252.80;;;;;;5113747;28;20065;-70
2021/12/14 03:15:45;;;;;;;75.47;48.20;;;179.60;2252.80;;;;;;5113664;28;20023;-68
2021/12/14 03:18:14;;;;;;;80.38;52.63;;;;;;;;;;5113825;28;20043;-76
2021/12/14 03:21:14;;;;;;;60.83;41.72;;;179.70;2252.80;;;;;;5113880;28;20026;-73
2021/12/14 03:23:46;;;;;;;59.28;41.25;;;179.50;2252.80;;;;;;5011288;28;20026;-66
2021/12/14 03:26:18;;;;;;;149.13;82.50;;;179.50;2252.80;;;;;;5011416;28;20022;-66
2021/12/14 03:28:48;;;;;;;138.65;72.47;;;179.30;2252.80;;;;;;5011303;28;20436;-67
2021/12/14 03:31:17;;;;;;;120.15;68.38;;;154.50;2252.80;;;;;;5011111;28;20096;-69
2021/12/14 03:33:51;;;;;;;98.53;56.17;;;154.50;2252.80;;;;;;5011259;28;20034;-66
2021/12/14 03:36:23;;;;;;;103.82;66.15;;;179.40;2252.80;;;;;;5011183;28;20033;-65
2021/12/14 03:38:53;;;;;;;;;;;179.40;2252.80;;;;;;5011562;28;20041;-66
2021/12/14 03:41:26;;;;;;;69.93;42.45;;;179.50;2252.80;;;;;;5011426;28;19909;-68
2021/12/14 03:43:59;;;;;;;82.90;51.17;;;179.40;2252.80;;;;;;5011126;28;20022;-72
2021/12/14 03:46:27;;;;;;;80.20;51.63;;;;;;;;;;5011325;28;20104;-66
2021/12/14 03:48:53;;;;;;;78.53;48.78;;;179.50;2252.80;;;;;;5010731;28;20044;-66
2021/12/14 03:51:24;;;;;;;82.63;50.22;;;179.50;2252.80;;;;;;5011011;28;20080;-69
2021/12/14 03:53:52;;;;;;;75.53;50.15;;;179.40;2252.80;;;;;;5010994;28;20030;-67
2021/12/14 03:56:18;;;;;;;78.18;49.67;;;179.50;2252.80;;;;;;5011191;28;20165;-67
2021/12/14 03:58:45;;;;;;;77.47;50.50;;;179.50;2252.80;;;;;;5011103;28;20021;-67
2021/12/14 04:01:26;;;;;;;72.07;47.88;;;179.40;2252.80;;;;;;5113718;28;20563;-72
2021/12/14 04:03:57;;;;;;;60.40;42.90;;;179.60;2252.80;;;;;;5113669;28;20088;-76
2021/12/14 04:06:23;;;;;;;72.55;49.30;;;179.40;2252.80;;;;;;5113458;28;20024;-68
2021/12/14 04:08:50;;;;;;;77.05;54.67;;;179.40;2252.80;;;;;;5112516;28;20024;-72
2021/12/14 04:11:16;;;;;;;74.75;49.33;;;179.40;2252.80;;;;;;5113189;28;20046;-68
2021/12/14 04:13:46;;;;;;;58.00;43.15;;;179.40;2252.80;;;;;;5112883;28;20019;-66
2021/12/14 04:16:17;;;;;;;65.88;45.83;;;179.50;2252.80;;;;;;5113195;28;20015;-77
2021/12/14 04:18:44;;;;;;;72.53;48.25;;;179.50;2252.80;;;;;;5113210;28;20085;-66
2021/12/14 04:21:10;;;;;;;65.15;45.38;;;179.50;2252.80;;;;;;5113336;28;20432;-65
2021/12/14 04:23:41;;;;;;;67.90;46.58;;;179.60;2252.80;;;;;;5116864;28;20108;-70
2021/12/14 04:26:09;;;;;;;78.70;54.10;;;179.50;2252.80;;;;;;5117318;28;20399;-76
2021/12/14 04:28:42;;;;;;;71.30;51.53;;;179.50;2252.80;;;;;;5117063;28;20039;-72
2021/12/14 04:31:09;;;;;;;78.65;49.65;;;179.30;2252.80;;;;;;5116821;28;20044;-66
2021/12/14 04:33:38;;;;;;;58.85;40.88;;;179.20;2252.80;;;;;;5117074;28;20053;-73
2021/12/14 04:36:05;;;;;;;57.08;40.35;;;;;;;;;;5117017;28;20028;-74
2021/12/14 04:38:35;;;;;;;72.38;45.38;;;;;;;;;;5116655;28;20027;-66
2021/12/14 04:52:09;;;;;;;55.28;34.15;;;154.20;2252.80;;;;;;5116618;28;20051;-67
2021/12/14 04:54:57;;;;;;;50.35;34.38;;;154.20;2252.80;;;;;;5116613;28;20027;-65
2021/12/14 04:57:29;;;;;;;50.70;31.27;;;;;;;;;;5116648;28;20031;-73
2021/12/14 04:59:56;;;;;;;51.20;32.05;;;;;;;;;;5116482;28;20030;-72
2021/12/14 05:02:27;;;;;;;52.15;32.22;;;154.40;2252.80;;;;;;5116438;28;20024;-75
2021/12/14 05:04:55;;;;;;;54.08;34.88;;;179.20;2252.80;;;;;;5116410;28;20027;-66
2021/12/14 05:07:48;;;;;;;59.83;36.65;;;179.30;2252.80;;;;;;5116404;28;20015;-66
2021/12/14 05:10:21;;;;;;;62.40;38.55;;;179.60;2252.80;;;;;;5116266;28;20042;-75
2021/12/14 05:12:46;;;;;;;64.78;40.78;;;179.60;2252.80;;;;;;5116063;28;20096;-71
2021/12/14 05:15:14;;;;;;;79.53;49.30;;;179.60;2252.80;;;;;;5116544;28;20020;-72
2021/12/14 05:17:42;;;;;;;93.97;63.75;;;179.60;2252.80;;;;;;5116262;28;20027;-71
2021/12/14 05:20:10;;;;;;;98.05;64.95;;;179.50;2252.80;;;;;;5115988;28;20023;-75
2021/12/14 05:22:38;;;;;;;85.15;57.92;;;179.60;2252.80;;;;;;5116079;28;20606;-66
2021/12/14 05:25:06;;;;;;;75.90;55.35;;;;;;;;;;5116051;28;20024;-67
2021/12/14 05:27:35;;;;;;;82.65;56.10;;;;;;;;;;5115610;28;20023;-74
2021/12/14 05:30:06;;;;;;;55.22;37.80;;;;;;;;;;5115895;28;20175;-74
2021/12/14 05:32:32;;;;;;;56.78;41.13;;;;;;;;;;5115780;28;20557;-67
2021/12/14 05:35:00;;;;;;;55.58;39.33;;;;;;;;;;5114747;28;20482;-67
2021/12/14 05:37:30;;;;;;;48.50;34.50;;;;;;;;;;5116191;28;20369;-68
2021/12/14 05:40:01;;;;;;;48.97;35.65;;;;;;;;;;5116058;28;20042;-68
2021/12/14 05:45:17;;;;;;;47.60;36.63;;;;;;;;;;5116051;28;20047;-66
2021/12/14 05:47:45;;;;;;;59.53;41.90;;;;;;;;;;5115499;28;20455;-72
2021/12/14 05:50:15;;;;;;;46.70;32.90;;;;;;;;;;5115504;28;20012;-66
2021/12/14 05:52:42;;;;;;;46.97;34.40;;;;;;;;;;5115269;28;20055;-66
2021/12/14 05:55:08;;;;;;;51.85;36.30;;;;;;;;;;5115432;28;20065;-65
2021/12/14 05:57:34;;;;;;;48.63;36.88;;;;;;;;;;5115549;28;20024;-67
2021/12/14 06:00:00;;;;;;;44.45;32.40;;;179.90;2252.80;;;;;;5115275;28;20509;-65
2021/12/14 06:02:26;;;;;;;57.33;41.45;;;179.80;2252.80;;;;;;5115073;28;20118;-75
2021/12/14 06:04:55;;;;;;;67.65;45.63;;;179.60;2252.80;;;;;;5115252;28;20102;-66
2021/12/14 06:07:21;;;;;;;72.25;49.58;;;179.60;2252.80;;;;;;5115066;28;20065;-65
2021/12/14 06:09:50;;;;;;;82.90;53.90;;;179.70;2252.80;;;;;;5114974;28;20028;-66
2021/12/14 06:12:30;;;;;;;127.97;81.65;;;179.70;2252.80;;;;;;5096764;28;20048;-68
2021/12/14 06:14:59;;;;;;;78.25;53.55;;;179.80;2252.80;;;;;;5115022;28;20023;-66
2021/12/14 06:17:31;;;;;;;80.80;51.30;;;179.50;2252.80;;;;;;5114852;28;20106;-68
2021/12/14 06:20:00;;;;;;;70.05;46.30;;;179.70;2252.80;;;;;;5114784;28;20506;-72
2021/12/14 06:22:27;;;;;;;54.60;38.53;;;179.80;2252.80;;;;;;5114978;28;20027;-66
2021/12/14 06:24:59;;;;;;;54.70;38.33;;;179.80;2252.80;;;;;;5114803;28;20024;-66
2021/12/14 06:27:28;;;;;;;54.03;36.85;;;179.90;2252.80;;;;;;5114676;28;20020;-65
2021/12/14 06:29:57;;;;;;;51.15;35.50;;;179.90;2252.80;;;;;;5114574;28;20140;-70
2021/12/14 06:32:28;;;;;;;35.95;26.48;;;179.90;2252.80;;;;;;5114619;28;20042;-67
2021/12/14 06:35:17;;;;;;;39.88;29.40;;;179.80;2252.80;;;;;;5114705;28;20366;-66
2021/12/14 06:38:21;;;;;;;40.80;30.60;;;179.80;2252.80;;;;;;5114532;28;20023;-66
2021/12/14 06:41:02;;;;;;;39.28;28.50;;;179.80;2252.80;;;;;;5114891;28;20550;-69
2021/12/14 06:43:31;;;;;;;44.85;32.47;;;179.80;2252.80;;;;;;5096006;28;20024;-66
2021/12/14 06:46:11;;;;;;;47.00;34.75;;;179.80;2252.80;;;;;;5114058;28;20496;-70
2021/12/14 06:48:48;;;;;;;62.53;43.90;;;179.80;2252.80;;;;;;5114348;28;20106;-70
2021/12/14 06:51:21;;;;;;;50.28;36.33;;;179.70;2252.80;;;;;;5114260;28;20028;-66
2021/12/14 06:53:51;;;;;;;39.85;29.40;;;179.40;2252.80;;;;;;5114570;28;20019;-66
2021/12/14 06:56:26;;;;;;;57.80;40.30;;;154.50;2252.80;;;;;;5113962;28;20023;-67
2021/12/14 06:58:56;;;;;;;55.47;39.47;;;154.50;2252.80;;;;;;5095550;28;20470;-74
2021/12/14 07:01:29;;;;;;;54.80;38.90;;;154.10;2252.80;;;;;;5113789;28;20108;-68
2021/12/14 07:04:03;;;;;;;62.78;41.60;;;154.50;2252.80;;;;;;5113780;28;20102;-66
2021/12/14 07:06:36;;;;;;;45.58;33.65;;;179.30;2252.80;;;;;;5113906;28;20037;-65
2021/12/14 07:09:14;;;;;;;47.55;33.15;;;;;;;;;;5113726;28;20022;-67
2021/12/14 07:11:45;;;;;;;48.67;34.65;;;179.40;2252.80;;;;;;5113751;28;20054;-66
2021/12/14 07:14:26;;;;;;;49.83;32.92;;;179.40;2252.80;;;;;;5113528;28;20022;-66
2021/12/14 07:16:56;;;;;;;48.30;30.75;;;179.60;2252.80;;;;;;5113395;28;20493;-76
2021/12/14 07:19:43;;;;;;;59.40;39.00;;;179.60;2252.80;;;;;;5113567;28;20031;-67
2021/12/14 07:22:33;;;;;;;84.63;48.05;;;179.70;2252.80;;;;;;5113617;28;20082;-73
2021/12/14 07:25:08;;;;;;;49.15;31.60;;;179.80;2252.80;;;;;;5113622;28;20026;-76
2021/12/14 07:27:44;;;;;;;76.50;48.08;;;179.90;2252.80;;;;;;5113346;28;20022;-76
2021/12/14 07:30:15;;;;;;;65.07;40.80;;;;;;;;;;5113308;28;20052;-67
2021/12/14 07:32:53;;;;;;;66.72;39.05;;;;;;;;;;5094591;28;20058;-67
2021/12/14 07:35:27;;;;;;;63.72;38.70;;;;;;;;;;5113207;28;20020;-67
2021/12/14 07:37:53;;;;;;;53.38;35.72;;;;;;;;;;5113196;28;20473;-68
2021/12/14 07:40:21;;;;;;;49.80;32.20;;;180.10;2252.80;;;;;;5113813;28;20365;-67
2021/12/14 07:42:46;;;;;;;52.15;34.10;;;204.90;2252.80;;;;;;5113185;28;20031;-74
2021/12/14 07:45:23;;;;;;;41.33;31.48;;;205.00;2252.80;;;;;;5113307;28;20026;-75
2021/12/14 07:47:52;;;;;;;45.60;32.88;;;205.00;2252.80;;;;;;5113311;28;20027;-67
2021/12/14 07:50:18;;;;;;;34.55;25.42;;;205.10;2252.80;;;;;;5094794;28;20477;-74
2021/12/14 07:52:44;;;;;;;38.40;27.33;;;204.80;2252.80;;;;;;5113198;28;20040;-73
2021/12/14 07:55:14;;;;;;;63.65;40.20;;;180.10;2252.80;;;;;;5113149;28;20024;-72
2021/12/14 07:57:40;;;;;;;64.17;41.47;;;204.80;2252.80;;;;;;5112552;28;20074;-65
2021/12/14 08:00:35;;;;;;;79.50;49.00;;;205.00;2252.80;;;;;;5113252;28;20028;-67
2021/12/14 08:03:02;;;;;;;61.22;39.08;;;205.20;2252.80;;;;;;5112825;28;20443;-69
2021/12/14 08:05:35;;;;;;;57.85;34.63;;;205.20;2252.80;;;;;;5113053;28;20016;-67
2021/12/14 08:08:18;;;;;;;59.38;39.95;;;205.20;2252.80;;;;;;5112852;28;20379;-68
2021/12/14 08:11:17;;;;;;;42.97;31.13;;;205.30;2252.80;;;;;;5112937;28;20023;-67
2021/12/14 08:13:46;;;;;;;51.47;35.00;;;205.20;2252.80;;;;;;5112993;28;20058;-68
2021/12/14 08:16:12;;;;;;;42.88;28.83;;;205.20;2252.80;;;;;;5112849;28;20018;-68
2021/12/14 08:18:38;;;;;;;39.40;26.33;;;205.20;2252.80;;;;;;5112965;28;20027;-70
2021/12/14 08:21:09;;;;;;;38.70;31.88;;;205.10;2252.80;;;;;;5113117;28;20028;-67
2021/12/14 08:23:40;;;;;;;55.75;38.67;;;205.20;2252.80;;;;;;5112925;28;20547;-71
2021/12/14 08:26:06;;;;;;;39.92;29.23;;;205.30;2252.80;;;;;;5113221;28;20027;-67
2021/12/14 08:28:44;;;;;;;41.35;28.52;;;205.30;2252.80;;;;;;5113001;28;20030;-69
2021/12/14 08:31:10;;;;;;;49.85;35.17;;;205.30;2252.80;;;;;;5112427;28;20135;-67
2021/12/14 08:33:36;;;;;;;40.80;30.85;;;205.40;2252.80;;;;;;5112665;28;20028;-72
2021/12/14 08:36:05;;;;;;;43.50;29.25;;;205.50;2252.80;;;;;;5112731;28;20397;-69
2021/12/14 08:38:34;;;;;;;43.88;30.73;;;205.40;2252.80;;;;;;5112474;28;20545;-67
2021/12/14 08:41:14;;;;;;;40.58;28.25;;;205.60;2252.80;;;;;;5112636;28;20027;-67
2021/12/14 08:43:47;;;;;;;41.50;29.65;;;205.50;2252.80;;;;;;5094279;28;20073;-67
2021/12/14 08:46:21;;;;;;;44.15;30.88;;;205.60;2252.80;;;;;;5112660;28;20030;-67
2021/12/14 08:48:51;;;;;;;37.95;25.83;;;205.60;2252.80;;;;;;5112332;28;20529;-71
2021/12/14 08:51:20;;;;;;;39.65;26.60;;;205.50;2252.80;;;;;;5112366;28;20032;-69
2021/12/14 08:53:51;;;;;;;54.75;35.45;;;205.50;2252.80;;;;;;5112345;28;20023;-67
2021/12/14 08:56:19;;;;;;;52.67;33.05;;;205.60;2252.80;;;;;;5112259;28;20020;-67
2021/12/14 08:58:46;;;;;;;51.13;33.70;;;205.70;2252.80;;;;;;5112521;28;20066;-66
2021/12/14 09:01:16;;;;;;;47.88;31.60;;;;;;;;;;5112351;28;20490;-67
2021/12/14 09:03:50;;;;;;;34.13;23.95;;;230.60;2252.80;;;;;;5112311;28;20027;-67
2021/12/14 09:06:17;;;;;;;57.38;36.70;;;;;;;;;;5112395;28;20091;-68
2021/12/14 09:08:44;;;;;;;32.33;24.40;;;;;;;;;;5112785;28;20028;-67
2021/12/14 09:11:12;;;;;;;27.05;21.30;;;281.60;2227.20;;;;;;5115812;28;20032;-67
2021/12/14 09:13:39;;;;;;;34.40;24.58;;;;;;;;;;5115856;28;20049;-67
2021/12/14 09:16:10;;;;;;;46.50;31.50;;;;;;;;;;5115791;28;20019;-67
2021/12/14 09:18:41;;;;;;;49.78;32.53;;;333.30;1817.60;;;;;;5116180;28;20027;-68
2021/12/14 09:21:21;;;;;;;36.30;26.10;;;384.60;1484.80;;;;;;5115783;28;20481;-71
2021/12/14 09:23:51;;;;;;;23.35;18.63;;;435.60;1280.00;;;;;;5116123;28;20028;-66
2021/12/14 09:26:23;;;;;;;60.40;39.97;;;435.60;1280.00;;;;;;5115388;28;20020;-69
2021/12/14 09:28:50;;;;;;;47.25;35.50;;;;;;;;;;5115588;28;20090;-67
2021/12/14 09:31:24;;;;;;;48.20;35.88;;;;;;;;;;5115259;28;20048;-67
2021/12/14 09:33:53;;;;;;;50.05;36.20;;;;;;;;;;5115635;28;20027;-66
2021/12/14 09:36:19;;;;;;;44.95;33.63;;;;;;;;;;5115585;28;20016;-68
2021/12/14 09:38:51;;;;;;;46.28;33.58;;;486.80;1126.40;;;;;;5115663;28;21288;-67
2021/12/14 09:41:21;;;;;;;39.38;31.95;;;486.50;1152.00;;;;;;5115378;28;20032;-70
2021/12/14 09:43:48;;;;;;;28.63;23.92;;;;;;;;;;5115164;28;20102;-71
2021/12/14 09:46:16;;;;;;;37.00;29.83;;;538.10;998.40;;;;;;5115232;28;20054;-68
2021/12/14 09:48:47;;;;;;;31.55;24.80;;;563.20;972.80;;;;;;5115159;28;20023;-69
2021/12/14 09:51:15;;;;;;;23.83;20.17;;;;;;;;;;5115061;28;20024;-69
2021/12/14 09:53:45;;;;;;;21.08;18.27;;;563.80;921.60;;;;;;5115201;28;20066;-68
2021/12/14 09:56:14;;;;;;;33.95;25.13;;;588.90;870.40;;;;;;5115020;28;20020;-69
2021/12/14 09:58:48;;;;;;;41.13;32.85;;;563.50;921.60;;;;;;5115065;28;20462;-67
2021/12/14 10:01:28;;;;;;;151.38;122.63;;;538.00;947.20;;;;;;5115435;28;20024;-67
2021/12/14 10:03:57;;;;;;;30.45;27.08;;;486.90;1049.60;;;;;;5114963;28;20026;-67
2021/12/14 10:06:26;;;;;;;32.70;26.75;;;;;;;;;;5115026;28;20034;-69
2021/12/14 10:08:59;;;;;;;33.33;27.40;;;564.00;896.00;;;;;;5114853;28;20550;-68
2021/12/14 10:11:43;;;;;;;32.63;27.05;;;563.60;921.60;;;;;;5114805;28;20036;-67
2021/12/14 10:14:10;;;;;;;27.73;24.60;;;537.80;972.80;;;;;;5114509;28;20024;-67
2021/12/14 10:16:36;;;;;;;34.15;29.15;;;486.80;1049.60;;;;;;5114832;28;20098;-68
2021/12/14 10:19:09;;;;;;;40.60;30.75;;;461.20;1152.00;;;;;;5114563;28;20058;-67
2021/12/14 10:21:39;;;;;;;38.08;29.23;;;461.00;1152.00;;;;;;5114214;28;20020;-67
2021/12/14 10:24:08;;;;;;;31.10;27.00;;;436.10;1177.60;;;;;;5114590;28;20470;-68
2021/12/14 10:26:36;;;;;;;38.38;31.08;;;;;;;;;;5114422;28;20470;-67
2021/12/14 10:29:03;;;;;;;40.22;32.10;;;486.50;1075.20;;;;;;5114185;28;20031;-68
2021/12/14 10:31:51;;;;;;;37.65;29.88;;;487.00;1024.00;;;;;;5114253;28;20519;-67
2021/12/14 10:34:22;;;;;;;68.53;57.35;;;461.30;1100.80;;;;;;5114102;28;20035;-70
2021/12/14 10:36:52;;;;;;;43.95;39.20;;;;;;;;;;5114177;28;20474;-70
2021/12/14 10:44:52;;;;;;;35.40;29.15;;;486.60;1049.60;;;;;;5113669;28;20030;-67
2021/12/14 10:47:21;;;;;;;36.63;29.23;;;486.40;1049.60;;;;;;5113886;28;20393;-68
2021/12/14 10:49:48;;;;;;;42.67;34.58;;;461.50;1100.80;;;;;;5113951;28;20020;-67
2021/12/14 10:52:19;;;;;;;29.23;23.15;;;435.80;1126.40;;;;;;5114191;28;20036;-66
2021/12/14 10:54:47;;;;;;;28.60;24.23;;;;;;;;;;5113971;28;20020;-67
2021/12/14 10:57:17;;;;;;;37.17;26.38;;;486.40;1049.60;;;;;;5113484;28;20027;-66
2021/12/14 10:59:46;;;;;;;32.22;26.20;;;461.40;1075.20;;;;;;5113633;28;20027;-66
2021/12/14 11:02:12;;;;;;;63.17;45.55;;;435.30;1152.00;;;;;;5113756;28;20027;-67
2021/12/14 11:04:41;;;;;;;43.35;35.42;;;;;;;;;;5113704;28;20019;-68
2021/12/14 11:07:15;;;;;;;63.53;42.08;;;384.10;1254.40;;;;;;5113726;28;20023;-67
2021/12/14 11:09:42;;;;;;;57.42;43.58;;;359.00;1305.60;;;;;;5113731;28;20028;-67
2021/12/14 11:12:21;;;;;;;42.40;34.63;;;;;;;;;;5113023;28;20474;-67
2021/12/14 11:14:49;;;;;;;40.45;32.65;;;;;;;;;;5113839;28;20419;-67
2021/12/14 11:20:03;;;;;;;46.70;34.28;;;;;;;;;;5113268;28;20061;-68
2021/12/14 11:22:41;;;;;;;50.13;38.25;;;;;;;;;;5113139;28;20024;-68
2021/12/14 11:25:11;;;;;;;29.45;25.30;;;;;;;;;;5113451;28;20081;-68
2021/12/14 11:27:39;;;;;;;55.45;49.58;;;;;;;;;;5113138;28;20035;-67
2021/12/14 11:30:08;;;;;;;73.05;50.13;;;;;;;;;;5113009;28;20070;-69
2021/12/14 11:32:34;;;;;;;40.30;31.92;;;;;;;;;;5112507;28;20039;-68
2021/12/14 11:35:02;;;;;;;31.20;26.58;;;435.60;1126.40;;;;;;5113010;28;20563;-68
2021/12/14 11:37:34;;;;;;;45.42;37.72;;;435.40;1152.00;;;;;;5113113;28;20023;-67
2021/12/14 11:40:01;;;;;;;43.58;35.25;;;435.50;1152.00;;;;;;5113483;28;20023;-67
2021/12/14 11:42:28;;;;;;;41.80;33.47;;;435.30;1177.60;;;;;;5113045;28;20102;-67
2021/12/14 11:45:16;;;;;;;43.15;38.45;;;435.30;1152.00;;;;;;5112943;28;20022;-67
2021/12/14 11:47:47;;;;;;;52.17;44.80;;;435.30;1152.00;;;;;;5112780;28;20027;-67
2021/12/14 11:50:38;;;;;;;31.85;24.95;;;;;;;;;;5112797;28;20027;-68
2021/12/14 11:53:09;;;;;;;46.10;30.38;;;;;;;;;;5112943;28;20035;-68
2021/12/14 11:55:47;;;;;;;31.40;22.95;;;;;;;;;;5112819;28;20103;-68
2021/12/14 11:58:14;;;;;;;23.88;18.95;;;;;;;;;;5112831;28;20020;-68
2021/12/14 12:00:42;;;;;;;27.20;21.60;;;;;;;;;;5112672;28;20026;-68
2021/12/14 12:03:24;;;;;;;27.42;23.35;;;;;;;;;;5112793;28;20374;-68
2021/12/14 12:06:13;;;;;;;33.30;26.92;;;436.10;1075.20;;;;;;5112954;28;20023;-66
2021/12/14 12:11:39;;;;;;;28.10;21.75;;;435.70;1075.20;;;;;;5113037;28;20093;-72
2021/12/14 12:14:26;;;;;;;27.95;21.33;;;435.60;1075.20;;;;;;5112593;28;20020;-66
2021/12/14 12:16:55;;;;;;;40.75;30.45;;;435.50;1100.80;;;;;;5113225;28;20024;-67
2021/12/14 12:19:26;;;;;;;45.50;32.90;;;435.30;1100.80;;;;;;5112330;28;20019;-66
2021/12/14 12:21:53;;;;;;;35.88;28.58;;;435.40;1100.80;;;;;;5112772;28;20095;-66
2021/12/14 12:24:42;;;;;;;28.45;20.48;;;435.30;1100.80;;;;;;5112507;28;20035;-66
2021/12/14 12:27:35;;;;;;;36.17;26.02;;;435.30;1126.40;;;;;;5112578;28;20083;-67
2021/12/14 12:30:06;;;;;;;25.08;19.20;;;435.40;1100.80;;;;;;5112177;28;20047;-66
2021/12/14 12:32:32;;;;;;;24.20;18.67;;;435.30;1100.80;;;;;;5112672;28;20087;-71
2021/12/14 12:34:59;;;;;;;25.88;18.75;;;435.20;1075.20;;;;;;5112606;28;20416;-67
2021/12/14 12:37:41;;;;;;;25.48;18.35;;;410.50;1126.40;;;;;;5112351;28;20028;-65
2021/12/14 12:40:14;;;;;;;23.48;19.08;;;410.50;1100.80;;;;;;5112514;28;20038;-67
2021/12/14 12:42:41;;;;;;;30.88;22.17;;;410.50;1100.80;;;;;;5112663;28;20466;-69
2021/12/14 12:45:32;;;;;;;65.28;37.85;;;410.40;1100.80;;;;;;5097235;28;20092;-66
2021/12/14 12:47:58;;;;;;;81.70;51.08;;;410.50;1126.40;;;;;;5116184;28;20088;-66
2021/12/14 12:50:26;;;;;;;31.15;25.30;;;410.50;1100.80;;;;;;5116180;28;20502;-72
2021/12/14 12:52:51;;;;;;;25.35;19.75;;;435.20;1075.20;;;;;;5115512;28;20035;-65
2021/12/14 12:55:28;;;;;;;34.42;26.98;;;410.30;1100.80;;;;;;5116017;28;20422;-67
2021/12/14 12:58:14;;;;;;;36.53;28.15;;;410.10;1152.00;;;;;;5115994;28;20062;-66
2021/12/14 13:00:51;;;;;;;26.25;21.60;;;409.90;1177.60;;;;;;5115780;28;20035;-66
2021/12/14 13:03:30;;;;;;;24.40;18.95;;;410.00;1126.40;;;;;;5115670;28;20023;-67
2021/12/14 13:06:01;;;;;;;26.15;20.42;;;410.00;1100.80;;;;;;5115816;28;20115;-66
2021/12/14 13:08:33;;;;;;;32.70;26.25;;;410.00;1100.80;;;;;;5115606;28;20099;-67
2021/12/14 13:11:17;;;;;;;27.85;20.65;;;410.00;1100.80;;;;;;5115623;28;20072;-74
2021/12/14 13:13:45;;;;;;;30.25;23.08;;;409.90;1100.80;;;;;;5116073;28;20030;-68
2021/12/14 13:16:24;;;;;;;43.53;30.35;;;409.70;1152.00;;;;;;5115459;28;20026;-68
2021/12/14 13:19:01;;;;;;;42.03;28.60;;;409.60;1152.00;;;;;;5115613;28;20034;-71
2021/12/14 13:21:33;;;;;;;49.92;31.65;;;409.60;1152.00;;;;;;5115453;28;20035;-67
2021/12/14 13:23:59;;;;;;;;;;;409.70;1126.40;;;;;;5115728;28;20107;-66
2021/12/14 13:27:11;;;;;;;36.08;24.20;;;409.60;1203.20;;;;;;5115194;28;19907;-69
2021/12/14 13:29:48;;;;;;;38.50;26.98;;;384.90;1126.40;;;;;;5114441;28;20047;-69